sensor_id;sensor_type;location;lat;lon;timestamp;P1;durP1;ratioP1;P2;durP2;ratioP2
77876;SDS011;67251;50.844;7.978;2024-03-23T00:53:06;18.02;;;6.68;;
77876;SDS011;67251;50.844;7.978;2024-03-23T00:55:32;10.55;;;3.95;;
77876;SDS011;67251;50.844;7.978;2024-03-23T00:57:58;12.77;;;5.03;;
77876;SDS011;67251;50.844;7.978;2024-03-23T01:00:23;11.52;;;4.47;;
77876;SDS011;67251;50.844;7.978;2024-03-23T01:02:48;8.00;;;3.10;;
77876;SDS011;67251;50.844;7.978;2024-03-23T01:05:14;5.97;;;2.03;;
77876;SDS011;67251;50.844;7.978;2024-03-23T01:07:39;5.63;;;1.90;;
77876;SDS011;67251;50.844;7.978;2024-03-23T01:10:04;4.60;;;1.58;;
77876;SDS011;67251;50.844;7.978;2024-03-23T01:12:30;3.13;;;1.23;;
77876;SDS011;67251;50.844;7.978;2024-03-23T01:14:55;3.33;;;1.15;;
77876;SDS011;67251;50.844;7.978;2024-03-23T01:17:21;3.40;;;1.23;;
77876;SDS011;67251;50.844;7.978;2024-03-23T01:19:46;4.55;;;1.33;;
77876;SDS011;67251;50.844;7.978;2024-03-23T01:22:11;3.95;;;1.05;;
77876;SDS011;67251;50.844;7.978;2024-03-23T01:24:37;4.22;;;1.42;;
77876;SDS011;67251;50.844;7.978;2024-03-23T01:27:03;3.72;;;1.02;;
77876;SDS011;67251;50.844;7.978;2024-03-23T01:29:28;3.45;;;0.90;;
77876;SDS011;67251;50.844;7.978;2024-03-23T01:31:53;3.90;;;1.08;;
77876;SDS011;67251;50.844;7.978;2024-03-23T01:34:19;4.03;;;0.77;;
77876;SDS011;67251;50.844;7.978;2024-03-23T01:36:45;3.58;;;1.00;;
77876;SDS011;67251;50.844;7.978;2024-03-23T01:41:46;4.10;;;1.20;;
77876;SDS011;67251;50.844;7.978;2024-03-23T01:44:12;3.20;;;0.93;;
77876;SDS011;67251;50.844;7.978;2024-03-23T01:46:38;2.67;;;0.70;;
77876;SDS011;67251;50.844;7.978;2024-03-23T01:49:06;2.95;;;0.88;;
77876;SDS011;67251;50.844;7.978;2024-03-23T01:51:32;2.00;;;0.70;;
77876;SDS011;67251;50.844;7.978;2024-03-23T01:53:59;3.00;;;0.80;;
77876;SDS011;67251;50.844;7.978;2024-03-23T01:56:31;2.33;;;0.80;;
77876;SDS011;67251;50.844;7.978;2024-03-23T01:59:04;1.05;;;0.32;;
77876;SDS011;67251;50.844;7.978;2024-03-23T02:01:30;2.33;;;0.95;;
77876;SDS011;67251;50.844;7.978;2024-03-23T02:03:57;2.80;;;0.90;;
77876;SDS011;67251;50.844;7.978;2024-03-23T02:06:23;2.17;;;0.60;;
77876;SDS011;67251;50.844;7.978;2024-03-23T02:08:49;2.92;;;0.57;;
77876;SDS011;67251;50.844;7.978;2024-03-23T02:11:14;1.35;;;0.50;;
77876;SDS011;67251;50.844;7.978;2024-03-23T02:13:40;2.50;;;0.80;;
77876;SDS011;67251;50.844;7.978;2024-03-23T02:16:05;1.02;;;0.45;;
77876;SDS011;67251;50.844;7.978;2024-03-23T02:18:31;3.58;;;0.70;;
77876;SDS011;67251;50.844;7.978;2024-03-23T02:20:57;4.68;;;1.08;;
77876;SDS011;67251;50.844;7.978;2024-03-23T02:23:22;2.15;;;0.70;;
77876;SDS011;67251;50.844;7.978;2024-03-23T02:25:49;2.90;;;0.70;;
77876;SDS011;67251;50.844;7.978;2024-03-23T02:28:14;3.90;;;0.95;;
77876;SDS011;67251;50.844;7.978;2024-03-23T02:30:40;2.38;;;0.60;;
77876;SDS011;67251;50.844;7.978;2024-03-23T02:33:05;3.65;;;0.85;;
77876;SDS011;67251;50.844;7.978;2024-03-23T02:35:30;2.25;;;0.65;;
77876;SDS011;67251;50.844;7.978;2024-03-23T02:37:56;2.72;;;0.88;;
77876;SDS011;67251;50.844;7.978;2024-03-23T02:40:23;1.63;;;0.52;;
77876;SDS011;67251;50.844;7.978;2024-03-23T02:42:48;2.30;;;0.73;;
77876;SDS011;67251;50.844;7.978;2024-03-23T02:45:14;3.08;;;0.85;;
77876;SDS011;67251;50.844;7.978;2024-03-23T02:47:39;2.67;;;0.77;;
77876;SDS011;67251;50.844;7.978;2024-03-23T02:50:06;2.78;;;0.90;;
77876;SDS011;67251;50.844;7.978;2024-03-23T02:52:32;3.72;;;0.70;;
77876;SDS011;67251;50.844;7.978;2024-03-23T02:54:57;4.18;;;0.90;;
77876;SDS011;67251;50.844;7.978;2024-03-23T02:57:23;3.50;;;0.80;;
77876;SDS011;67251;50.844;7.978;2024-03-23T02:59:48;3.20;;;1.00;;
77876;SDS011;67251;50.844;7.978;2024-03-23T03:02:14;3.05;;;0.88;;
77876;SDS011;67251;50.844;7.978;2024-03-23T03:04:40;2.63;;;0.75;;
77876;SDS011;67251;50.844;7.978;2024-03-23T03:07:06;2.95;;;0.60;;
77876;SDS011;67251;50.844;7.978;2024-03-23T03:09:31;2.63;;;0.90;;
77876;SDS011;67251;50.844;7.978;2024-03-23T03:11:57;3.22;;;0.80;;
77876;SDS011;67251;50.844;7.978;2024-03-23T03:14:23;4.20;;;0.88;;
77876;SDS011;67251;50.844;7.978;2024-03-23T03:16:48;4.72;;;1.00;;
77876;SDS011;67251;50.844;7.978;2024-03-23T03:19:14;3.22;;;0.70;;
77876;SDS011;67251;50.844;7.978;2024-03-23T03:21:41;1.55;;;0.50;;
77876;SDS011;67251;50.844;7.978;2024-03-23T03:24:06;3.20;;;0.98;;
77876;SDS011;67251;50.844;7.978;2024-03-23T03:26:32;3.38;;;0.80;;
77876;SDS011;67251;50.844;7.978;2024-03-23T03:28:57;4.70;;;0.95;;
77876;SDS011;67251;50.844;7.978;2024-03-23T03:31:23;3.15;;;0.80;;
77876;SDS011;67251;50.844;7.978;2024-03-23T03:33:49;2.28;;;0.70;;
77876;SDS011;67251;50.844;7.978;2024-03-23T03:36:15;3.70;;;0.90;;
77876;SDS011;67251;50.844;7.978;2024-03-23T03:38:41;2.85;;;0.70;;
77876;SDS011;67251;50.844;7.978;2024-03-23T03:41:06;2.67;;;0.93;;
77876;SDS011;67251;50.844;7.978;2024-03-23T03:43:32;2.20;;;0.55;;
77876;SDS011;67251;50.844;7.978;2024-03-23T03:45:58;2.97;;;0.80;;
77876;SDS011;67251;50.844;7.978;2024-03-23T03:48:24;3.00;;;0.55;;
77876;SDS011;67251;50.844;7.978;2024-03-23T03:50:50;1.80;;;0.50;;
77876;SDS011;67251;50.844;7.978;2024-03-23T03:53:15;1.92;;;0.63;;
77876;SDS011;67251;50.844;7.978;2024-03-23T03:55:41;4.72;;;0.68;;
77876;SDS011;67251;50.844;7.978;2024-03-23T03:58:06;1.77;;;0.50;;
77876;SDS011;67251;50.844;7.978;2024-03-23T04:00:32;1.90;;;0.55;;
77876;SDS011;67251;50.844;7.978;2024-03-23T04:02:57;1.35;;;0.55;;
77876;SDS011;67251;50.844;7.978;2024-03-23T04:05:23;1.30;;;0.45;;
77876;SDS011;67251;50.844;7.978;2024-03-23T04:07:48;1.42;;;0.55;;
77876;SDS011;67251;50.844;7.978;2024-03-23T04:10:14;1.90;;;0.43;;
77876;SDS011;67251;50.844;7.978;2024-03-23T04:12:40;1.08;;;0.30;;
77876;SDS011;67251;50.844;7.978;2024-03-23T04:15:06;1.70;;;0.40;;
77876;SDS011;67251;50.844;7.978;2024-03-23T04:17:32;2.63;;;0.40;;
77876;SDS011;67251;50.844;7.978;2024-03-23T04:19:59;1.42;;;0.40;;
77876;SDS011;67251;50.844;7.978;2024-03-23T04:22:25;1.23;;;0.30;;
77876;SDS011;67251;50.844;7.978;2024-03-23T04:24:54;1.48;;;0.50;;
77876;SDS011;67251;50.844;7.978;2024-03-23T04:27:20;1.05;;;0.30;;
77876;SDS011;67251;50.844;7.978;2024-03-23T04:29:49;1.17;;;0.40;;
77876;SDS011;67251;50.844;7.978;2024-03-23T04:32:15;0.77;;;0.30;;
77876;SDS011;67251;50.844;7.978;2024-03-23T04:34:41;0.95;;;0.30;;
77876;SDS011;67251;50.844;7.978;2024-03-23T04:37:06;0.93;;;0.30;;
77876;SDS011;67251;50.844;7.978;2024-03-23T04:39:32;0.95;;;0.40;;
77876;SDS011;67251;50.844;7.978;2024-03-23T04:41:58;2.08;;;0.45;;
77876;SDS011;67251;50.844;7.978;2024-03-23T04:44:23;0.40;;;0.20;;
77876;SDS011;67251;50.844;7.978;2024-03-23T04:46:48;0.88;;;0.30;;
77876;SDS011;67251;50.844;7.978;2024-03-23T04:49:14;2.40;;;0.50;;
77876;SDS011;67251;50.844;7.978;2024-03-23T04:51:39;2.88;;;0.43;;
77876;SDS011;67251;50.844;7.978;2024-03-23T04:54:06;1.38;;;0.50;;
77876;SDS011;67251;50.844;7.978;2024-03-23T04:56:32;3.15;;;0.40;;
77876;SDS011;67251;50.844;7.978;2024-03-23T04:58:58;2.05;;;0.88;;
77876;SDS011;67251;50.844;7.978;2024-03-23T05:01:26;1.52;;;0.50;;
77876;SDS011;67251;50.844;7.978;2024-03-23T05:03:52;1.90;;;0.60;;
77876;SDS011;67251;50.844;7.978;2024-03-23T05:06:18;2.45;;;0.70;;
77876;SDS011;67251;50.844;7.978;2024-03-23T05:08:44;1.65;;;0.30;;
77876;SDS011;67251;50.844;7.978;2024-03-23T05:11:11;1.52;;;0.70;;
77876;SDS011;67251;50.844;7.978;2024-03-23T05:13:36;1.63;;;0.50;;
77876;SDS011;67251;50.844;7.978;2024-03-23T05:16:01;2.42;;;0.45;;
77876;SDS011;67251;50.844;7.978;2024-03-23T05:18:27;2.17;;;0.45;;
77876;SDS011;67251;50.844;7.978;2024-03-23T05:20:56;2.97;;;0.65;;
77876;SDS011;67251;50.844;7.978;2024-03-23T05:23:23;3.60;;;0.90;;
77876;SDS011;67251;50.844;7.978;2024-03-23T05:25:48;2.22;;;0.73;;
77876;SDS011;67251;50.844;7.978;2024-03-23T05:28:14;2.72;;;0.80;;
77876;SDS011;67251;50.844;7.978;2024-03-23T05:30:39;3.10;;;0.90;;
77876;SDS011;67251;50.844;7.978;2024-03-23T05:33:05;2.30;;;0.73;;
77876;SDS011;67251;50.844;7.978;2024-03-23T05:35:32;4.57;;;0.90;;
77876;SDS011;67251;50.844;7.978;2024-03-23T05:37:58;2.65;;;0.93;;
77876;SDS011;67251;50.844;7.978;2024-03-23T05:40:23;2.15;;;0.60;;
77876;SDS011;67251;50.844;7.978;2024-03-23T05:42:50;8.45;;;0.90;;
77876;SDS011;67251;50.844;7.978;2024-03-23T05:45:18;3.40;;;0.80;;
77876;SDS011;67251;50.844;7.978;2024-03-23T05:47:44;3.10;;;0.73;;
77876;SDS011;67251;50.844;7.978;2024-03-23T05:50:09;2.25;;;0.65;;
77876;SDS011;67251;50.844;7.978;2024-03-23T05:52:37;4.00;;;0.77;;
77876;SDS011;67251;50.844;7.978;2024-03-23T05:55:03;3.72;;;0.77;;
77876;SDS011;67251;50.844;7.978;2024-03-23T05:57:29;3.47;;;0.85;;
77876;SDS011;67251;50.844;7.978;2024-03-23T05:59:54;4.78;;;0.95;;
77876;SDS011;67251;50.844;7.978;2024-03-23T06:02:20;5.18;;;1.17;;
77876;SDS011;67251;50.844;7.978;2024-03-23T06:04:45;3.55;;;1.20;;
77876;SDS011;67251;50.844;7.978;2024-03-23T06:07:11;4.85;;;1.20;;
77876;SDS011;67251;50.844;7.978;2024-03-23T06:09:40;4.00;;;1.00;;
77876;SDS011;67251;50.844;7.978;2024-03-23T06:12:06;4.15;;;1.30;;
77876;SDS011;67251;50.844;7.978;2024-03-23T06:14:31;7.07;;;1.40;;
77876;SDS011;67251;50.844;7.978;2024-03-23T06:16:57;3.47;;;1.20;;
77876;SDS011;67251;50.844;7.978;2024-03-23T06:19:23;4.07;;;1.30;;
77876;SDS011;67251;50.844;7.978;2024-03-23T06:21:48;4.68;;;1.40;;
77876;SDS011;67251;50.844;7.978;2024-03-23T06:24:14;5.20;;;1.33;;
77876;SDS011;67251;50.844;7.978;2024-03-23T06:26:39;2.80;;;0.95;;
77876;SDS011;67251;50.844;7.978;2024-03-23T06:29:04;5.00;;;1.33;;
77876;SDS011;67251;50.844;7.978;2024-03-23T06:31:30;5.28;;;1.30;;
77876;SDS011;67251;50.844;7.978;2024-03-23T06:33:56;5.22;;;1.58;;
77876;SDS011;67251;50.844;7.978;2024-03-23T06:36:21;5.43;;;1.60;;
77876;SDS011;67251;50.844;7.978;2024-03-23T06:38:46;8.27;;;1.92;;
77876;SDS011;67251;50.844;7.978;2024-03-23T06:41:12;8.85;;;1.85;;
77876;SDS011;67251;50.844;7.978;2024-03-23T06:43:37;6.20;;;1.90;;
77876;SDS011;67251;50.844;7.978;2024-03-23T06:46:03;7.50;;;1.65;;
77876;SDS011;67251;50.844;7.978;2024-03-23T06:48:31;6.13;;;1.77;;
77876;SDS011;67251;50.844;7.978;2024-03-23T06:50:57;8.30;;;1.90;;
77876;SDS011;67251;50.844;7.978;2024-03-23T06:53:22;4.97;;;1.80;;
77876;SDS011;67251;50.844;7.978;2024-03-23T06:55:54;6.72;;;2.00;;
77876;SDS011;67251;50.844;7.978;2024-03-23T06:58:20;5.45;;;1.92;;
77876;SDS011;67251;50.844;7.978;2024-03-23T07:00:46;4.68;;;1.77;;
77876;SDS011;67251;50.844;7.978;2024-03-23T07:03:11;7.20;;;1.70;;
77876;SDS011;67251;50.844;7.978;2024-03-23T07:05:37;8.45;;;1.83;;
77876;SDS011;67251;50.844;7.978;2024-03-23T07:08:02;7.47;;;1.75;;
77876;SDS011;67251;50.844;7.978;2024-03-23T07:10:28;5.60;;;2.20;;
77876;SDS011;67251;50.844;7.978;2024-03-23T07:12:53;9.02;;;2.10;;
77876;SDS011;67251;50.844;7.978;2024-03-23T07:15:19;6.82;;;1.85;;
77876;SDS011;67251;50.844;7.978;2024-03-23T07:17:46;5.10;;;2.03;;
77876;SDS011;67251;50.844;7.978;2024-03-23T07:20:12;5.25;;;1.63;;
77876;SDS011;67251;50.844;7.978;2024-03-23T07:22:38;3.50;;;1.42;;
77876;SDS011;67251;50.844;7.978;2024-03-23T07:25:04;7.07;;;1.90;;
77876;SDS011;67251;50.844;7.978;2024-03-23T07:27:31;6.55;;;2.40;;
77876;SDS011;67251;50.844;7.978;2024-03-23T07:29:57;7.85;;;2.03;;
77876;SDS011;67251;50.844;7.978;2024-03-23T07:32:22;10.27;;;2.97;;
77876;SDS011;67251;50.844;7.978;2024-03-23T07:34:48;10.63;;;2.80;;
77876;SDS011;67251;50.844;7.978;2024-03-23T07:37:13;9.35;;;2.70;;
77876;SDS011;67251;50.844;7.978;2024-03-23T07:39:39;10.15;;;2.60;;
77876;SDS011;67251;50.844;7.978;2024-03-23T07:42:04;6.85;;;2.92;;
77876;SDS011;67251;50.844;7.978;2024-03-23T07:44:30;10.60;;;3.55;;
77876;SDS011;67251;50.844;7.978;2024-03-23T07:46:55;6.63;;;2.50;;
77876;SDS011;67251;50.844;7.978;2024-03-23T07:49:21;7.78;;;2.92;;
77876;SDS011;67251;50.844;7.978;2024-03-23T07:51:46;7.90;;;2.53;;
77876;SDS011;67251;50.844;7.978;2024-03-23T07:54:12;8.40;;;3.10;;
77876;SDS011;67251;50.844;7.978;2024-03-23T07:56:37;9.60;;;3.35;;
77876;SDS011;67251;50.844;7.978;2024-03-23T07:59:02;7.40;;;2.72;;
77876;SDS011;67251;50.844;7.978;2024-03-23T08:01:28;9.63;;;3.22;;
77876;SDS011;67251;50.844;7.978;2024-03-23T08:03:54;7.13;;;2.58;;
77876;SDS011;67251;50.844;7.978;2024-03-23T08:06:19;7.40;;;2.55;;
77876;SDS011;67251;50.844;7.978;2024-03-23T08:08:47;7.35;;;2.92;;
77876;SDS011;67251;50.844;7.978;2024-03-23T08:11:14;9.00;;;3.13;;
77876;SDS011;67251;50.844;7.978;2024-03-23T08:13:40;8.30;;;2.85;;
77876;SDS011;67251;50.844;7.978;2024-03-23T08:16:07;7.00;;;2.67;;
77876;SDS011;67251;50.844;7.978;2024-03-23T08:18:33;6.20;;;1.48;;
77876;SDS011;67251;50.844;7.978;2024-03-23T08:20:59;8.43;;;2.97;;
77876;SDS011;67251;50.844;7.978;2024-03-23T08:23:27;9.77;;;2.95;;
77876;SDS011;67251;50.844;7.978;2024-03-23T08:25:59;7.13;;;2.65;;
77876;SDS011;67251;50.844;7.978;2024-03-23T08:28:26;7.70;;;2.30;;
77876;SDS011;67251;50.844;7.978;2024-03-23T08:30:52;6.82;;;2.45;;
77876;SDS011;67251;50.844;7.978;2024-03-23T08:33:18;8.68;;;3.00;;
77876;SDS011;67251;50.844;7.978;2024-03-23T08:35:53;7.40;;;2.60;;
77876;SDS011;67251;50.844;7.978;2024-03-23T08:38:20;9.38;;;3.22;;
77876;SDS011;67251;50.844;7.978;2024-03-23T08:40:46;10.23;;;2.42;;
77876;SDS011;67251;50.844;7.978;2024-03-23T08:43:11;7.70;;;2.67;;
77876;SDS011;67251;50.844;7.978;2024-03-23T08:45:36;8.85;;;3.20;;
77876;SDS011;67251;50.844;7.978;2024-03-23T08:48:02;8.52;;;2.63;;
77876;SDS011;67251;50.844;7.978;2024-03-23T08:50:27;11.55;;;2.72;;
77876;SDS011;67251;50.844;7.978;2024-03-23T08:52:52;8.55;;;2.80;;
77876;SDS011;67251;50.844;7.978;2024-03-23T08:55:18;8.13;;;2.80;;
77876;SDS011;67251;50.844;7.978;2024-03-23T08:57:43;5.32;;;2.50;;
77876;SDS011;67251;50.844;7.978;2024-03-23T09:00:09;4.28;;;1.75;;
77876;SDS011;67251;50.844;7.978;2024-03-23T09:02:36;6.30;;;2.33;;
77876;SDS011;67251;50.844;7.978;2024-03-23T09:05:02;6.40;;;2.65;;
77876;SDS011;67251;50.844;7.978;2024-03-23T09:07:29;5.72;;;2.38;;
77876;SDS011;67251;50.844;7.978;2024-03-23T09:09:56;6.85;;;2.58;;
77876;SDS011;67251;50.844;7.978;2024-03-23T09:12:21;8.93;;;2.40;;
77876;SDS011;67251;50.844;7.978;2024-03-23T09:14:46;8.60;;;2.58;;
77876;SDS011;67251;50.844;7.978;2024-03-23T09:17:12;6.38;;;2.10;;
77876;SDS011;67251;50.844;7.978;2024-03-23T09:19:37;7.05;;;2.45;;
77876;SDS011;67251;50.844;7.978;2024-03-23T09:22:04;6.07;;;2.65;;
77876;SDS011;67251;50.844;7.978;2024-03-23T09:24:30;8.93;;;2.42;;
77876;SDS011;67251;50.844;7.978;2024-03-23T09:26:57;7.65;;;2.38;;
77876;SDS011;67251;50.844;7.978;2024-03-23T09:29:22;7.75;;;3.15;;
77876;SDS011;67251;50.844;7.978;2024-03-23T09:31:47;8.90;;;2.45;;
77876;SDS011;67251;50.844;7.978;2024-03-23T09:34:13;6.78;;;2.35;;
77876;SDS011;67251;50.844;7.978;2024-03-23T09:36:38;5.82;;;2.42;;
77876;SDS011;67251;50.844;7.978;2024-03-23T09:39:03;7.20;;;2.42;;
77876;SDS011;67251;50.844;7.978;2024-03-23T09:41:30;7.88;;;2.20;;
77876;SDS011;67251;50.844;7.978;2024-03-23T09:43:56;5.00;;;2.08;;
77876;SDS011;67251;50.844;7.978;2024-03-23T09:46:21;7.35;;;1.90;;
77876;SDS011;67251;50.844;7.978;2024-03-23T09:48:47;7.80;;;2.60;;
77876;SDS011;67251;50.844;7.978;2024-03-23T09:51:12;6.63;;;2.50;;
77876;SDS011;67251;50.844;7.978;2024-03-23T09:53:38;7.63;;;2.20;;
77876;SDS011;67251;50.844;7.978;2024-03-23T09:56:04;9.02;;;2.60;;
77876;SDS011;67251;50.844;7.978;2024-03-23T09:58:29;7.47;;;2.22;;
77876;SDS011;67251;50.844;7.978;2024-03-23T10:00:57;10.52;;;2.17;;
77876;SDS011;67251;50.844;7.978;2024-03-23T10:03:22;8.40;;;2.10;;
77876;SDS011;67251;50.844;7.978;2024-03-23T10:05:48;9.27;;;2.42;;
77876;SDS011;67251;50.844;7.978;2024-03-23T10:08:25;7.88;;;2.17;;
77876;SDS011;67251;50.844;7.978;2024-03-23T10:10:51;9.90;;;2.33;;
77876;SDS011;67251;50.844;7.978;2024-03-23T10:13:26;6.25;;;1.90;;
77876;SDS011;67251;50.844;7.978;2024-03-23T10:15:55;6.80;;;1.67;;
77876;SDS011;67251;50.844;7.978;2024-03-23T10:18:22;5.50;;;1.63;;
77876;SDS011;67251;50.844;7.978;2024-03-23T10:20:54;6.40;;;2.00;;
77876;SDS011;67251;50.844;7.978;2024-03-23T10:23:31;5.60;;;1.60;;
77876;SDS011;67251;50.844;7.978;2024-03-23T10:26:13;4.65;;;1.60;;
77876;SDS011;67251;50.844;7.978;2024-03-23T10:28:52;6.45;;;2.00;;
77876;SDS011;67251;50.844;7.978;2024-03-23T10:31:18;4.88;;;2.08;;
77876;SDS011;67251;50.844;7.978;2024-03-23T10:33:44;3.65;;;1.20;;
77876;SDS011;67251;50.844;7.978;2024-03-23T10:36:13;3.47;;;1.55;;
77876;SDS011;67251;50.844;7.978;2024-03-23T10:38:40;4.05;;;1.70;;
77876;SDS011;67251;50.844;7.978;2024-03-23T10:41:07;5.68;;;1.70;;
77876;SDS011;67251;50.844;7.978;2024-03-23T10:43:34;4.40;;;1.60;;
77876;SDS011;67251;50.844;7.978;2024-03-23T10:46:01;6.80;;;1.85;;
77876;SDS011;67251;50.844;7.978;2024-03-23T10:48:26;5.13;;;1.73;;
77876;SDS011;67251;50.844;7.978;2024-03-23T10:50:52;6.38;;;1.77;;
77876;SDS011;67251;50.844;7.978;2024-03-23T10:53:18;5.28;;;1.60;;
77876;SDS011;67251;50.844;7.978;2024-03-23T10:55:47;5.15;;;1.67;;
77876;SDS011;67251;50.844;7.978;2024-03-23T10:58:14;4.65;;;1.50;;
77876;SDS011;67251;50.844;7.978;2024-03-23T11:00:40;6.70;;;1.60;;
77876;SDS011;67251;50.844;7.978;2024-03-23T11:05:57;5.38;;;1.60;;
77876;SDS011;67251;50.844;7.978;2024-03-23T11:08:36;9.80;;;2.30;;
77876;SDS011;67251;50.844;7.978;2024-03-23T11:11:18;3.97;;;1.70;;
77876;SDS011;67251;50.844;7.978;2024-03-23T11:13:48;6.13;;;1.77;;
77876;SDS011;67251;50.844;7.978;2024-03-23T11:16:25;6.10;;;1.92;;
77876;SDS011;67251;50.844;7.978;2024-03-23T11:22:03;4.65;;;1.35;;
77876;SDS011;67251;50.844;7.978;2024-03-23T11:24:30;5.57;;;2.00;;
77876;SDS011;67251;50.844;7.978;2024-03-23T11:26:55;6.10;;;1.85;;
77876;SDS011;67251;50.844;7.978;2024-03-23T11:29:21;5.55;;;1.70;;
77876;SDS011;67251;50.844;7.978;2024-03-23T11:31:51;5.72;;;1.35;;
77876;SDS011;67251;50.844;7.978;2024-03-23T11:34:18;4.70;;;1.38;;
77876;SDS011;67251;50.844;7.978;2024-03-23T11:36:46;3.40;;;1.05;;
77876;SDS011;67251;50.844;7.978;2024-03-23T11:39:16;4.43;;;1.63;;
77876;SDS011;67251;50.844;7.978;2024-03-23T11:41:52;3.85;;;0.88;;
77876;SDS011;67251;50.844;7.978;2024-03-23T11:44:19;3.22;;;1.00;;
77876;SDS011;67251;50.844;7.978;2024-03-23T11:46:46;2.60;;;0.90;;
77876;SDS011;67251;50.844;7.978;2024-03-23T11:51:47;1.30;;;0.50;;
77876;SDS011;67251;50.844;7.978;2024-03-23T11:54:13;4.40;;;1.13;;
77876;SDS011;67251;50.844;7.978;2024-03-23T11:56:38;4.57;;;1.15;;
77876;SDS011;67251;50.844;7.978;2024-03-23T11:59:04;2.63;;;0.82;;
77876;SDS011;67251;50.844;7.978;2024-03-23T12:01:29;3.17;;;0.80;;
77876;SDS011;67251;50.844;7.978;2024-03-23T12:03:56;1.95;;;0.65;;
77876;SDS011;67251;50.844;7.978;2024-03-23T12:06:21;2.55;;;0.77;;
77876;SDS011;67251;50.844;7.978;2024-03-23T12:08:46;3.53;;;0.85;;
77876;SDS011;67251;50.844;7.978;2024-03-23T12:11:13;3.88;;;0.80;;
77876;SDS011;67251;50.844;7.978;2024-03-23T12:13:41;4.45;;;0.90;;
77876;SDS011;67251;50.844;7.978;2024-03-23T12:16:11;3.30;;;0.77;;
77876;SDS011;67251;50.844;7.978;2024-03-23T12:18:37;2.40;;;0.75;;
77876;SDS011;67251;50.844;7.978;2024-03-23T12:21:05;3.00;;;0.82;;
77876;SDS011;67251;50.844;7.978;2024-03-23T12:23:31;3.40;;;0.90;;
77876;SDS011;67251;50.844;7.978;2024-03-23T12:25:57;3.42;;;1.17;;
77876;SDS011;67251;50.844;7.978;2024-03-23T12:28:22;3.28;;;1.00;;
77876;SDS011;67251;50.844;7.978;2024-03-23T12:30:48;4.50;;;1.10;;
77876;SDS011;67251;50.844;7.978;2024-03-23T12:33:13;3.60;;;0.73;;
77876;SDS011;67251;50.844;7.978;2024-03-23T12:35:38;2.05;;;0.70;;
77876;SDS011;67251;50.844;7.978;2024-03-23T12:38:04;2.17;;;0.80;;
77876;SDS011;67251;50.844;7.978;2024-03-23T12:40:29;2.80;;;0.70;;
77876;SDS011;67251;50.844;7.978;2024-03-23T12:42:55;1.73;;;0.52;;
77876;SDS011;67251;50.844;7.978;2024-03-23T12:45:23;1.70;;;0.60;;
77876;SDS011;67251;50.844;7.978;2024-03-23T12:47:49;1.88;;;0.93;;
77876;SDS011;67251;50.844;7.978;2024-03-23T12:50:14;3.05;;;1.13;;
77876;SDS011;67251;50.844;7.978;2024-03-23T12:52:40;3.78;;;1.35;;
77876;SDS011;67251;50.844;7.978;2024-03-23T12:55:05;4.13;;;0.90;;
77876;SDS011;67251;50.844;7.978;2024-03-23T12:57:31;4.78;;;0.85;;
77876;SDS011;67251;50.844;7.978;2024-03-23T12:59:57;2.55;;;0.73;;
77876;SDS011;67251;50.844;7.978;2024-03-23T13:02:23;2.75;;;0.60;;
77876;SDS011;67251;50.844;7.978;2024-03-23T13:04:52;4.43;;;0.82;;
77876;SDS011;67251;50.844;7.978;2024-03-23T13:07:18;3.38;;;0.68;;
77876;SDS011;67251;50.844;7.978;2024-03-23T13:09:44;2.40;;;0.80;;
77876;SDS011;67251;50.844;7.978;2024-03-23T13:12:10;2.33;;;0.73;;
77876;SDS011;67251;50.844;7.978;2024-03-23T13:14:39;2.08;;;0.60;;
77876;SDS011;67251;50.844;7.978;2024-03-23T13:17:04;2.05;;;0.60;;
77876;SDS011;67251;50.844;7.978;2024-03-23T13:19:31;1.83;;;0.55;;
77876;SDS011;67251;50.844;7.978;2024-03-23T13:21:57;1.33;;;0.40;;
77876;SDS011;67251;50.844;7.978;2024-03-23T13:24:24;2.78;;;0.68;;
77876;SDS011;67251;50.844;7.978;2024-03-23T13:26:50;2.20;;;0.73;;
77876;SDS011;67251;50.844;7.978;2024-03-23T13:29:17;2.97;;;0.80;;
77876;SDS011;67251;50.844;7.978;2024-03-23T13:31:42;3.45;;;0.70;;
77876;SDS011;67251;50.844;7.978;2024-03-23T13:34:08;1.92;;;0.60;;
77876;SDS011;67251;50.844;7.978;2024-03-23T13:36:33;2.03;;;0.65;;
77876;SDS011;67251;50.844;7.978;2024-03-23T13:38:58;4.45;;;0.80;;
77876;SDS011;67251;50.844;7.978;2024-03-23T13:41:24;1.48;;;0.50;;
77876;SDS011;67251;50.844;7.978;2024-03-23T13:43:49;3.45;;;0.80;;
77876;SDS011;67251;50.844;7.978;2024-03-23T13:46:15;2.03;;;0.70;;
77876;SDS011;67251;50.844;7.978;2024-03-23T13:48:40;2.67;;;0.80;;
77876;SDS011;67251;50.844;7.978;2024-03-23T13:51:07;5.40;;;1.23;;
77876;SDS011;67251;50.844;7.978;2024-03-23T13:53:32;3.35;;;1.13;;
77876;SDS011;67251;50.844;7.978;2024-03-23T13:55:58;5.28;;;1.60;;
77876;SDS011;67251;50.844;7.978;2024-03-23T13:58:23;4.78;;;1.20;;
77876;SDS011;67251;50.844;7.978;2024-03-23T14:00:50;5.00;;;1.20;;
77876;SDS011;67251;50.844;7.978;2024-03-23T14:03:16;4.07;;;1.20;;
77876;SDS011;67251;50.844;7.978;2024-03-23T14:05:42;2.78;;;0.85;;
77876;SDS011;67251;50.844;7.978;2024-03-23T14:08:08;6.63;;;1.42;;
77876;SDS011;67251;50.844;7.978;2024-03-23T14:10:34;4.55;;;1.20;;
77876;SDS011;67251;50.844;7.978;2024-03-23T14:13:01;3.15;;;1.00;;
77876;SDS011;67251;50.844;7.978;2024-03-23T14:15:26;5.45;;;1.30;;
77876;SDS011;67251;50.844;7.978;2024-03-23T14:17:52;3.75;;;1.20;;
77876;SDS011;67251;50.844;7.978;2024-03-23T14:20:17;3.78;;;1.20;;
77876;SDS011;67251;50.844;7.978;2024-03-23T14:22:43;6.55;;;1.50;;
77876;SDS011;67251;50.844;7.978;2024-03-23T14:25:09;3.55;;;1.25;;
77876;SDS011;67251;50.844;7.978;2024-03-23T14:27:35;6.13;;;1.33;;
77876;SDS011;67251;50.844;7.978;2024-03-23T14:30:03;4.45;;;1.58;;
77876;SDS011;67251;50.844;7.978;2024-03-23T14:32:32;3.80;;;1.33;;
77876;SDS011;67251;50.844;7.978;2024-03-23T14:35:00;5.70;;;1.40;;
77876;SDS011;67251;50.844;7.978;2024-03-23T14:37:26;4.32;;;1.45;;
77876;SDS011;67251;50.844;7.978;2024-03-23T14:39:51;3.67;;;1.20;;
77876;SDS011;67251;50.844;7.978;2024-03-23T14:42:17;2.58;;;0.80;;
77876;SDS011;67251;50.844;7.978;2024-03-23T14:44:44;4.03;;;1.20;;
77876;SDS011;67251;50.844;7.978;2024-03-23T14:47:10;4.53;;;1.33;;
77876;SDS011;67251;50.844;7.978;2024-03-23T14:49:35;3.85;;;1.13;;
77876;SDS011;67251;50.844;7.978;2024-03-23T14:52:01;3.10;;;0.82;;
77876;SDS011;67251;50.844;7.978;2024-03-23T14:54:26;2.70;;;0.93;;
77876;SDS011;67251;50.844;7.978;2024-03-23T14:56:52;4.07;;;1.40;;
77876;SDS011;67251;50.844;7.978;2024-03-23T14:59:17;3.53;;;1.13;;
77876;SDS011;67251;50.844;7.978;2024-03-23T15:01:42;4.55;;;1.25;;
77876;SDS011;67251;50.844;7.978;2024-03-23T15:04:07;6.97;;;2.22;;
77876;SDS011;67251;50.844;7.978;2024-03-23T15:06:33;5.07;;;1.90;;
77876;SDS011;67251;50.844;7.978;2024-03-23T15:08:58;4.20;;;1.20;;
77876;SDS011;67251;50.844;7.978;2024-03-23T15:11:24;2.58;;;0.93;;
77876;SDS011;67251;50.844;7.978;2024-03-23T15:13:49;3.38;;;0.95;;
77876;SDS011;67251;50.844;7.978;2024-03-23T15:16:19;4.35;;;1.17;;
77876;SDS011;67251;50.844;7.978;2024-03-23T15:18:47;3.15;;;1.05;;
77876;SDS011;67251;50.844;7.978;2024-03-23T15:21:12;3.90;;;1.02;;
77876;SDS011;67251;50.844;7.978;2024-03-23T15:23:40;3.40;;;0.90;;
77876;SDS011;67251;50.844;7.978;2024-03-23T15:26:08;2.15;;;0.60;;
77876;SDS011;67251;50.844;7.978;2024-03-23T15:28:33;5.32;;;1.10;;
77876;SDS011;67251;50.844;7.978;2024-03-23T15:31:17;2.75;;;0.93;;
77876;SDS011;67251;50.844;7.978;2024-03-23T15:33:43;2.45;;;0.85;;
77876;SDS011;67251;50.844;7.978;2024-03-23T15:36:09;3.95;;;1.00;;
77876;SDS011;67251;50.844;7.978;2024-03-23T15:38:34;3.78;;;1.33;;
77876;SDS011;67251;50.844;7.978;2024-03-23T15:41:00;3.92;;;1.30;;
77876;SDS011;67251;50.844;7.978;2024-03-23T15:43:25;3.97;;;1.08;;
77876;SDS011;67251;50.844;7.978;2024-03-23T15:48:20;5.93;;;1.35;;